createdAt,value
2022-10-03T00:00:03.883Z,100661.75
2022-10-03T00:03:29.600Z,100659.28
2022-10-03T00:06:30.680Z,100662.38
2022-10-03T00:09:37.401Z,100667.09
2022-10-03T00:12:47.620Z,100665.88
2022-10-03T00:15:40.981Z,100669.16
2022-10-03T00:18:37.355Z,100668.31
2022-10-03T00:21:43.282Z,100672.63
2022-10-03T00:24:42.048Z,100685.19
2022-10-03T00:27:35.521Z,100683.53
2022-10-03T00:30:26.238Z,100688.88
2022-10-03T00:33:20.845Z,100691.75
2022-10-03T00:36:13.512Z,100689.69
2022-10-03T00:39:16.025Z,100691.56
2022-10-03T00:42:39.959Z,100698.56
2022-10-03T00:45:49.684Z,100703.25
2022-10-03T00:49:16.716Z,100699.59
2022-10-03T00:52:17.057Z,100708.59
2022-10-03T00:55:16.823Z,100711.09
2022-10-03T00:58:25.920Z,100705.75
2022-10-03T01:01:31.482Z,100706.94
2022-10-03T01:04:32.272Z,100707.97
2022-10-03T01:07:33.482Z,100712.09
2022-10-03T01:10:24.891Z,100708.59
2022-10-03T01:13:24.858Z,100706.56
2022-10-03T01:16:21.492Z,100702.88
2022-10-03T01:19:27.306Z,100711.97
2022-10-03T01:22:31.421Z,100711.53
2022-10-03T01:25:20.993Z,100707.19
2022-10-03T01:28:57.297Z,100710.28
2022-10-03T01:31:50.332Z,100702.88
2022-10-03T01:34:45.103Z,100702.88
2022-10-03T01:37:38.623Z,100706.38
2022-10-03T01:40:30.958Z,100700.56
2022-10-03T01:43:22.137Z,100701.22
2022-10-03T01:46:18.260Z,100702.88
2022-10-03T01:49:13.489Z,100704.13
2022-10-03T01:52:06.560Z,100698.34
2022-10-03T01:55:05.307Z,100702.88
2022-10-03T01:58:01.116Z,100700.38
2022-10-03T02:00:57.548Z,100701.22
2022-10-03T02:03:54.845Z,100703.50
2022-10-03T02:06:50.208Z,100712.72
2022-10-03T02:09:46.692Z,100713.56
2022-10-03T02:12:38.837Z,100718.91
2022-10-03T02:15:30.214Z,100723.25
2022-10-03T02:18:24.749Z,100727.97
2022-10-03T02:21:21.010Z,100729.63
2022-10-03T02:24:27.245Z,100731.66
2022-10-03T02:27:34.351Z,100735.97
2022-10-03T02:30:23.535Z,100731.25
2022-10-03T02:34:04.273Z,100738.25
2022-10-03T02:37:25.698Z,100733.09
2022-10-03T02:40:33.071Z,100741.31
2022-10-03T02:43:49.926Z,100744.19
2022-10-03T02:47:05.744Z,100741.69
2022-10-03T02:50:38.962Z,100732.66
2022-10-03T02:53:54.527Z,100738.00
2022-10-03T02:57:05.145Z,100742.72
2022-10-03T03:00:07.117Z,100737.59
2022-10-03T03:03:30.975Z,100743.72
2022-10-03T03:06:33.238Z,100746.41
2022-10-03T03:09:38.662Z,100758.75
2022-10-03T03:13:09.396Z,100754.69
2022-10-03T03:16:13.591Z,100763.72
2022-10-03T03:19:22.890Z,100756.69
2022-10-03T03:22:25.334Z,100765.75
2022-10-03T03:25:45.053Z,100767.41
2022-10-03T03:28:43.428Z,100777.28
2022-10-03T03:31:36.050Z,100768.69
2022-10-03T03:34:27.666Z,100785.13
2022-10-03T03:37:23.015Z,100784.09
2022-10-03T03:40:21.230Z,100790.00
2022-10-03T03:43:24.809Z,100786.75
2022-10-03T03:46:26.507Z,100794.13
2022-10-03T03:49:29.457Z,100782.44
2022-10-03T03:52:36.043Z,100782.22
2022-10-03T03:55:43.088Z,100782.22
2022-10-03T03:58:41.895Z,100784.28
2022-10-03T04:01:49.556Z,100781.78
2022-10-03T04:04:52.043Z,100779.78
2022-10-03T04:07:50.727Z,100782.63
2022-10-03T04:10:54.582Z,100787.56
2022-10-03T04:14:16.811Z,100791.09
2022-10-03T04:17:34.728Z,100780.59
2022-10-03T04:20:35.809Z,100788.41
2022-10-03T04:23:38.012Z,100791.91
2022-10-03T04:26:39.848Z,100789.84
2022-10-03T04:29:44.338Z,100791.09
2022-10-03T04:32:47.762Z,100789.63
2022-10-03T04:36:10.359Z,100792.13
2022-10-03T04:39:08.393Z,100804.81
2022-10-03T04:42:00.521Z,100798.03
2022-10-03T04:45:04.725Z,100799.47
2022-10-03T04:47:55.218Z,100808.34
2022-10-03T04:50:46.762Z,100804.81
2022-10-03T04:53:46.110Z,100803.03
2022-10-03T04:56:42.193Z,100802.41
2022-10-03T04:59:38.206Z,100802.41
2022-10-03T05:02:43.488Z,100808.16
2022-10-03T05:05:43.513Z,100806.50
2022-10-03T05:08:37.993Z,100808.16
2022-10-03T05:11:38.224Z,100809.81
2022-10-03T05:14:34.598Z,100806.91
2022-10-03T05:17:26.674Z,100813.50
2022-10-03T05:20:39.728Z,100814.75
2022-10-03T05:23:40.103Z,100815.16
2022-10-03T05:26:45.585Z,100824.56
2022-10-03T05:29:41.051Z,100826.66
2022-10-03T05:32:34.396Z,100817.81
2022-10-03T05:35:31.114Z,100827.88
2022-10-03T05:39:03.389Z,100840.22
2022-10-03T05:42:11.174Z,100835.69
2022-10-03T05:45:05.802Z,100844.56
2022-10-03T05:47:59.319Z,100849.44
2022-10-03T05:51:13.795Z,100845.94
2022-10-03T05:54:49.267Z,100858.28
2022-10-03T05:57:54.588Z,100858.09
2022-10-03T06:00:57.416Z,100859.97
2022-10-03T06:04:05.771Z,100861.63
2022-10-03T06:07:07.883Z,100868.97
2022-10-03T06:10:28.111Z,100860.94
2022-10-03T06:13:21.824Z,100874.31
2022-10-03T06:16:23.097Z,100872.66
2022-10-03T06:19:22.299Z,100874.72
2022-10-03T06:22:37.029Z,100878.00
2022-10-03T06:26:02.694Z,100883.75
2022-10-03T06:29:26.947Z,100883.34
2022-10-03T06:32:55.997Z,100881.34
2022-10-03T06:36:21.277Z,100888.69
2022-10-03T06:39:42.798Z,100895.69
2022-10-03T06:42:47.466Z,100898.38
2022-10-03T06:46:08.505Z,100903.72
2022-10-03T06:49:20.893Z,100910.09
2022-10-03T06:52:25.367Z,100910.09
2022-10-03T06:55:47.094Z,100910.09
2022-10-03T06:59:09.031Z,100926.13
2022-10-03T07:02:08.047Z,100922.44
2022-10-03T07:05:40.699Z,100920.59
2022-10-03T07:09:14.026Z,100921.78
2022-10-03T07:12:16.864Z,100926.13
2022-10-03T07:15:38.149Z,100926.13
2022-10-03T07:19:20.634Z,100922.44
2022-10-03T07:22:44.692Z,100921.44
2022-10-03T07:26:10.782Z,100929.47
2022-10-03T07:29:17.458Z,100921.16
2022-10-03T07:32:19.730Z,100929.81
2022-10-03T07:35:23.030Z,100924.47
2022-10-03T07:38:58.588Z,100936.63
2022-10-03T07:42:25.730Z,100937.94
2022-10-03T07:45:41.847Z,100945.56
2022-10-03T07:48:57.357Z,100937.19
2022-10-03T07:51:58.521Z,100955.91
2022-10-03T07:55:04.704Z,100952.13
2022-10-03T07:58:07.369Z,100953.94
2022-10-03T08:01:09.864Z,100951.44
2022-10-03T08:04:18.623Z,100954.38
2022-10-03T08:07:19.566Z,100965.41
2022-10-03T08:10:40.914Z,100961.22
2022-10-03T08:13:38.974Z,100960.06
2022-10-03T08:16:46.334Z,100962.88
2022-10-03T08:19:53.713Z,100962.94
2022-10-03T08:22:47.864Z,100973.28
2022-10-03T08:25:51.546Z,100968.16
2022-10-03T08:28:52.038Z,100964.72
2022-10-03T08:31:59.526Z,100975.28
2022-10-03T08:35:06.772Z,100976.06
2022-10-03T08:38:17.847Z,100972.31
2022-10-03T08:41:55.557Z,100968.53
2022-10-03T08:45:15.559Z,100970.19
2022-10-03T08:48:41.919Z,100977.81
2022-10-03T08:51:59.101Z,100980.50
2022-10-03T08:55:26.026Z,100978.06
2022-10-03T08:58:45.539Z,100981.41
2022-10-03T09:01:50.281Z,100985.06
2022-10-03T09:05:06.466Z,100979.72
2022-10-03T09:08:33.738Z,100973.41
2022-10-03T09:11:33.534Z,100981.03
2022-10-03T09:14:34.485Z,100976.50
2022-10-03T09:17:38.052Z,100974.66
2022-10-03T09:20:56.875Z,100972.00
2022-10-03T09:23:57.982Z,100980.66
2022-10-03T09:27:12.462Z,100976.94
2022-10-03T09:30:19.919Z,100981.28
2022-10-03T09:33:44.631Z,100978.59
2022-10-03T09:36:56.629Z,100973.88
2022-10-03T09:40:30.629Z,100967.50
2022-10-03T09:43:57.921Z,100965.94
2022-10-03T09:47:28.104Z,100976.91
2022-10-03T09:50:52.997Z,100978.38
2022-10-03T09:54:23.702Z,100972.25
2022-10-03T09:57:40.212Z,100975.94
2022-10-03T10:00:33.727Z,100978.78
2022-10-03T10:03:44.019Z,100967.91
2022-10-03T10:07:06.120Z,100983.34
2022-10-03T10:10:06.490Z,100976.34
2022-10-03T10:13:24.956Z,100983.50
2022-10-03T10:16:25.800Z,100982.19
2022-10-03T10:19:51.333Z,100981.06
2022-10-03T10:23:16.381Z,100987.78
2022-10-03T10:26:34.344Z,100980.31
2022-10-03T10:30:02.108Z,100985.25
2022-10-03T10:33:27.319Z,100982.50
2022-10-03T10:37:02.953Z,100983.47
2022-10-03T10:40:21.664Z,100972.31
2022-10-03T10:43:38.395Z,100965.47
2022-10-03T10:47:03.685Z,100972.25
2022-10-03T10:50:27.980Z,100977.16
2022-10-03T10:54:08.445Z,100970.09
2022-10-03T10:57:17.007Z,100974.28
2022-10-03T11:00:16.167Z,100972.63
2022-10-03T11:03:33.776Z,100984.66
2022-10-03T11:07:01.365Z,100978.72
2022-10-03T11:10:31.018Z,100976.06
2022-10-03T11:13:55.888Z,100970.66
2022-10-03T11:17:08.118Z,100979.25
2022-10-03T11:20:41.177Z,100969.13
2022-10-03T11:23:56.817Z,100969.75
2022-10-03T11:27:26.710Z,100983.28
2022-10-03T11:30:24.197Z,100979.91
2022-10-03T11:33:53.814Z,100984.41
2022-10-03T11:37:11.276Z,100977.84
2022-10-03T11:40:13.922Z,100976.94
2022-10-03T11:43:50.058Z,100984.66
2022-10-03T11:47:02.408Z,100977.44
2022-10-03T11:50:22.676Z,100978.75
2022-10-03T11:53:16.358Z,100976.81
2022-10-03T11:56:17.332Z,100977.72
2022-10-03T11:59:31.797Z,100978.53
2022-10-03T12:02:40.634Z,100978.75
2022-10-03T12:05:41.334Z,100978.44
2022-10-03T12:08:50.551Z,100976.13
2022-10-03T12:11:45.328Z,100973.63
2022-10-03T12:14:36.445Z,100981.09
2022-10-03T12:17:32.128Z,100982.28
2022-10-03T12:20:26.820Z,100974.44
2022-10-03T12:23:28.909Z,100987.47
2022-10-03T12:26:19.805Z,100977.78
2022-10-03T12:29:12.388Z,100986.84
2022-10-03T12:32:21.238Z,100977.97
2022-10-03T12:35:20.630Z,100986.00
2022-10-03T12:38:19.001Z,100978.59
2022-10-03T12:41:18.335Z,100978.59
2022-10-03T12:44:18.424Z,100975.75
2022-10-03T12:47:37.617Z,100980.47
2022-10-03T12:50:47.735Z,100984.34
2022-10-03T12:53:50.786Z,100985.47
2022-10-03T12:56:46.499Z,100986.66
2022-10-03T12:59:42.967Z,100990.00
2022-10-03T13:02:38.946Z,100992.47
2022-10-03T13:06:01.906Z,100988.78
2022-10-03T13:09:12.146Z,100988.78
2022-10-03T13:12:07.254Z,100986.56
2022-10-03T13:15:34.194Z,100981.03
2022-10-03T13:18:36.222Z,100970.72
2022-10-03T13:21:45.990Z,100978.91
2022-10-03T13:24:40.019Z,100980.41
2022-10-03T13:27:37.053Z,100981.03
2022-10-03T13:30:27.152Z,100969.94
2022-10-03T13:33:20.741Z,100970.50
2022-10-03T13:36:16.950Z,100962.09
2022-10-03T13:39:14.614Z,100956.75
2022-10-03T13:42:11.979Z,100967.03
2022-10-03T13:45:04.213Z,100961.69
2022-10-03T13:47:55.997Z,100956.34
2022-10-03T13:50:51.284Z,100959.63
2022-10-03T13:53:55.123Z,100954.69
2022-10-03T13:56:54.569Z,100959.56
2022-10-03T13:59:55.130Z,100952.00
2022-10-03T14:02:58.991Z,100963.50
2022-10-03T14:06:02.154Z,100961.22
2022-10-03T14:09:06.629Z,100964.34
2022-10-03T14:12:02.370Z,100969.41
2022-10-03T14:15:00.531Z,100975.16
2022-10-03T14:17:53.300Z,100971.47
2022-10-03T14:21:20.583Z,100977.19
2022-10-03T14:24:22.098Z,100973.03
2022-10-03T14:27:27.719Z,100972.66
2022-10-03T14:30:18.775Z,100964.06
2022-10-03T14:33:17.140Z,100953.13
2022-10-03T14:36:18.314Z,100955.81
2022-10-03T14:39:25.933Z,100956.44
2022-10-03T14:42:33.939Z,100957.84
2022-10-03T14:45:26.441Z,100956.53
2022-10-03T14:48:17.929Z,100962.59
2022-10-03T14:51:14.555Z,100954.78
2022-10-03T14:54:05.728Z,100961.16
2022-10-03T14:56:54.591Z,100963.81
2022-10-03T14:59:52.169Z,100966.13
2022-10-03T15:02:48.333Z,100966.38
2022-10-03T15:05:38.453Z,100966.38
2022-10-03T15:08:31.214Z,100970.34
2022-10-03T15:11:26.582Z,100965.00
2022-10-03T15:14:15.259Z,100958.34
2022-10-03T15:17:06.984Z,100962.09
2022-10-03T15:19:57.168Z,100966.63
2022-10-03T15:22:50.739Z,100961.94
2022-10-03T15:25:41.213Z,100972.00
2022-10-03T15:28:32.706Z,100965.88
2022-10-03T15:31:27.926Z,100963.84
2022-10-03T15:34:21.574Z,100960.97
2022-10-03T15:37:16.646Z,100951.13
2022-10-03T15:40:09.528Z,100955.84
2022-10-03T15:43:05.910Z,100957.84
2022-10-03T15:45:54.517Z,100962.56
2022-10-03T15:48:47.499Z,100952.13
2022-10-03T15:51:39.598Z,100950.72
2022-10-03T15:54:32.563Z,100940.03
2022-10-03T15:57:26.964Z,100940.41
2022-10-03T16:00:42.382Z,100948.44
2022-10-03T16:03:40.980Z,100948.28
2022-10-03T16:06:36.457Z,100954.03
2022-10-03T16:09:42.755Z,100952.63
2022-10-03T16:13:01.594Z,100951.63
2022-10-03T16:16:18.162Z,100950.59
2022-10-03T16:19:44.061Z,100947.53
2022-10-03T16:22:44.560Z,100950.84
2022-10-03T16:25:47.644Z,100946.00
2022-10-03T16:28:44.793Z,100949.69
2022-10-03T16:31:40.680Z,100946.53
2022-10-03T16:34:32.911Z,100952.75
2022-10-03T16:37:27.684Z,100941.28
2022-10-03T16:40:24.576Z,100940.88
2022-10-03T16:43:19.836Z,100948.78
2022-10-03T16:46:15.225Z,100952.19
2022-10-03T16:49:29.935Z,100952.53
2022-10-03T16:52:21.955Z,100957.69
2022-10-03T16:55:18.518Z,100971.22
2022-10-03T16:58:18.642Z,100979.63
2022-10-03T17:01:29.828Z,100974.28
2022-10-03T17:04:26.970Z,100971.34
2022-10-03T17:07:19.054Z,100970.16
2022-10-03T17:10:24.941Z,100957.78
2022-10-03T17:13:17.725Z,100962.31
2022-10-03T17:16:14.552Z,100963.91
2022-10-03T17:19:15.117Z,100964.53
2022-10-03T17:22:08.820Z,100963.97
2022-10-03T17:25:02.986Z,100968.91
2022-10-03T17:27:52.140Z,100965.81
2022-10-03T17:30:46.775Z,100972.56
2022-10-03T17:33:42.445Z,100967.56
2022-10-03T17:36:45.881Z,100978.25
2022-10-03T17:39:49.812Z,100984.88
2022-10-03T17:42:43.386Z,100972.13
2022-10-03T17:45:40.116Z,100977.06
2022-10-03T17:48:36.624Z,100979.47
2022-10-03T17:51:36.597Z,100967.94
2022-10-03T17:54:29.270Z,100974.09
2022-10-03T17:57:23.013Z,100974.94
2022-10-03T18:00:19.474Z,100972.50
2022-10-03T18:03:11.052Z,100973.66
2022-10-03T18:06:01.547Z,100980.69
2022-10-03T18:08:51.926Z,100981.69
2022-10-03T18:11:43.750Z,100986.75
2022-10-03T18:14:38.332Z,100985.13
2022-10-03T18:17:34.473Z,100986.13
2022-10-03T18:20:38.587Z,100989.84
2022-10-03T18:23:53.786Z,100990.84
2022-10-03T18:26:48.713Z,100983.84
2022-10-03T18:29:38.389Z,100987.53
2022-10-03T18:32:29.773Z,100980.50
2022-10-03T18:35:22.419Z,100983.47
2022-10-03T18:38:15.200Z,100976.06
2022-10-03T18:41:05.053Z,100977.72
2022-10-03T18:43:59.775Z,100978.06
2022-10-03T18:46:52.753Z,100979.00
2022-10-03T18:49:42.985Z,100988.69
2022-10-03T18:52:33.602Z,100982.94
2022-10-03T18:55:29.371Z,100980.91
2022-10-03T18:58:20.954Z,100978.22
2022-10-03T19:01:18.211Z,100978.84
2022-10-03T19:04:09.379Z,100975.16
2022-10-03T19:06:58.783Z,100977.22
2022-10-03T19:10:19.760Z,100980.50
2022-10-03T19:13:18.100Z,100983.84
2022-10-03T19:16:29.724Z,100976.63
2022-10-03T19:19:26.510Z,100978.50
2022-10-03T19:22:17.845Z,100977.22
2022-10-03T19:25:09.462Z,100978.84
2022-10-03T19:28:01.000Z,100975.16
2022-10-03T19:31:00.188Z,100978.28
2022-10-03T19:33:51.324Z,100975.63
2022-10-03T19:36:41.482Z,100979.75
2022-10-03T19:39:32.491Z,100975.81
2022-10-03T19:42:28.112Z,100973.31
2022-10-03T19:45:17.197Z,100984.66
2022-10-03T19:48:10.410Z,100987.16
2022-10-03T19:51:13.370Z,100985.13
2022-10-03T19:54:14.179Z,100981.41
2022-10-03T19:57:04.497Z,100976.06
2022-10-03T19:59:54.373Z,100976.50
2022-10-03T20:02:44.101Z,100970.72
2022-10-03T20:05:37.535Z,100976.63
2022-10-03T20:08:28.767Z,100971.09
2022-10-03T20:11:26.077Z,100978.09
2022-10-03T20:14:16.655Z,100972.75
2022-10-03T20:17:07.364Z,100976.47
2022-10-03T20:19:58.462Z,100969.91
2022-10-03T20:22:47.032Z,100980.16
2022-10-03T20:25:38.675Z,100971.75
2022-10-03T20:28:41.022Z,100972.75
2022-10-03T20:31:30.764Z,100975.25
2022-10-03T20:34:25.051Z,100970.31
2022-10-03T20:37:27.945Z,100966.63
2022-10-03T20:40:30.763Z,100964.97
2022-10-03T20:43:39.081Z,100963.72
2022-10-03T20:46:37.603Z,100964.97
2022-10-03T20:49:30.028Z,100967.00
2022-10-03T20:52:20.164Z,100971.09
2022-10-03T20:55:20.316Z,100966.56
2022-10-03T20:58:18.624Z,100969.91
2022-10-03T21:01:10.849Z,100958.75
2022-10-03T21:04:06.775Z,100971.50
2022-10-03T21:07:00.134Z,100964.47
2022-10-03T21:09:51.046Z,100975.03
2022-10-03T21:12:42.663Z,100969.25
2022-10-03T21:15:38.450Z,100963.72
2022-10-03T21:18:35.555Z,100963.31
2022-10-03T21:21:26.901Z,100957.97
2022-10-03T21:24:17.722Z,100960.63
2022-10-03T21:27:09.138Z,100964.97
2022-10-03T21:30:00.128Z,100964.56
2022-10-03T21:33:10.849Z,100966.28
2022-10-03T21:36:10.716Z,100969.88
2022-10-03T21:39:04.926Z,100959.84
2022-10-03T21:42:02.587Z,100958.41
2022-10-03T21:45:11.593Z,100960.66
2022-10-03T21:48:04.812Z,100950.50
2022-10-03T21:50:56.740Z,100951.41
2022-10-03T21:53:51.904Z,100950.13
2022-10-03T21:56:57.681Z,100954.22
2022-10-03T22:00:06.693Z,100959.59
2022-10-03T22:03:03.439Z,100956.38
2022-10-03T22:05:54.543Z,100944.81
2022-10-03T22:08:49.197Z,100955.47
2022-10-03T22:11:45.932Z,100946.06
2022-10-03T22:14:49.251Z,100954.63
2022-10-03T22:17:43.029Z,100953.31
2022-10-03T22:20:33.460Z,100948.44
2022-10-03T22:23:29.816Z,100954.31
2022-10-03T22:26:22.603Z,100953.06
2022-10-03T22:29:22.700Z,100946.06
2022-10-03T22:32:16.974Z,100946.69
2022-10-03T22:35:17.698Z,100944.22
2022-10-03T22:38:21.602Z,100938.66
2022-10-03T22:41:16.633Z,100943.78
2022-10-03T22:44:08.353Z,100941.56
2022-10-03T22:46:59.924Z,100941.81
2022-10-03T22:49:51.570Z,100944.22
2022-10-03T22:52:42.983Z,100943.53
2022-10-03T22:55:31.991Z,100945.09
2022-10-03T22:58:21.415Z,100944.19
2022-10-03T23:01:09.996Z,100944.59
2022-10-03T23:03:59.866Z,100944.53
2022-10-03T23:07:07.122Z,100938.75
2022-10-03T23:10:03.861Z,100949.41
2022-10-03T23:12:57.719Z,100942.22
2022-10-03T23:15:49.433Z,100946.91
2022-10-03T23:18:48.397Z,100934.91
2022-10-03T23:21:48.004Z,100941.69
2022-10-03T23:24:40.571Z,100948.06
2022-10-03T23:27:50.598Z,100946.00
2022-10-03T23:30:50.319Z,100941.03
2022-10-03T23:33:52.674Z,100944.53
2022-10-03T23:37:01.958Z,100942.25
2022-10-03T23:40:28.939Z,100941.81
2022-10-03T23:43:31.448Z,100946.34
2022-10-03T23:46:21.553Z,100949.66
2022-10-03T23:49:09.971Z,100947.16
2022-10-03T23:51:58.634Z,100949.81
2022-10-03T23:54:49.194Z,100949.00
2022-10-03T23:57:43.397Z,100941.81
